Time;durP1;ratioP1;P1;durP2;ratioP2;P2;SDS_P1;SDS_P2;PMS_P1;PMS_P2;Temp;Humidity;BMP_temperature;BMP_pressure;BME280_temperature;BME280_humidity;BME280_pressure;Samples;Min_cycle;Max_cycle;Signal;HPM_P1;HPM_P2
2024/01/26 00:00:04;;;;;;;;;;;2.90;90.40;;;;;;5006788;28;87140;-49
2024/01/26 00:02:30;;;;;;;;;;;2.90;90.40;;;;;;5006400;28;87965;-49
2024/01/26 00:04:55;;;;;;;;;;;2.90;90.30;;;;;;5009350;28;86947;-48
2024/01/26 00:07:21;;;;;;;;;;;2.90;90.30;;;;;;5005895;28;86971;-50
2024/01/26 00:09:46;;;;;;;;;;;2.90;90.30;;;;;;5006068;28;87376;-48
2024/01/26 00:12:12;;;;;;;;;;;2.90;90.30;;;;;;5006388;28;87016;-48
2024/01/26 00:14:37;;;;;;;;;;;2.90;90.30;;;;;;5005751;28;86989;-48
2024/01/26 00:17:03;;;;;;;;;;;2.90;90.30;;;;;;5005609;28;87562;-48
2024/01/26 00:19:28;;;;;;;;;;;2.90;90.30;;;;;;5006844;28;86156;-49
2024/01/26 00:21:54;;;;;;;;;;;2.90;90.30;;;;;;5005848;28;87049;-49
2024/01/26 00:24:19;;;;;;;;;;;2.90;90.30;;;;;;5007826;28;87545;-49
2024/01/26 00:26:46;;;;;;;;;;;2.90;90.20;;;;;;5015426;28;87815;-51
2024/01/26 00:29:12;;;;;;;;;;;2.90;90.20;;;;;;5012541;28;88435;-48
2024/01/26 00:31:37;;;;;;;;;;;2.90;90.20;;;;;;5012933;28;87009;-50
2024/01/26 00:34:03;;;;;;;;;;;2.90;90.10;;;;;;5013223;28;86877;-49
2024/01/26 00:36:28;;;;;;;;;;;2.90;90.10;;;;;;5012300;28;87426;-52
2024/01/26 00:38:54;;;;;;;;;;;2.90;90.10;;;;;;5013145;28;87009;-48
2024/01/26 00:41:20;;;;;;;;;;;2.90;90.10;;;;;;5012961;28;87030;-50
2024/01/26 00:43:45;;;;;;;;;;;2.90;90.00;;;;;;5013134;28;86615;-50
2024/01/26 00:46:11;;;;;;;;;;;2.90;90.00;;;;;;5012782;28;87000;-48
2024/01/26 00:48:36;;;;;;;;;;;2.90;90.00;;;;;;5015543;28;86958;-49
2024/01/26 00:51:03;;;;;;;;;;;2.90;90.00;;;;;;5012258;28;88291;-50
2024/01/26 00:53:28;;;;;;;;;;;2.90;89.90;;;;;;5003014;28;89485;-50
2024/01/26 00:55:54;;;;;;;;;;;2.90;89.90;;;;;;5012580;28;87449;-48
2024/01/26 00:58:19;;;;;;;;;;;2.90;89.70;;;;;;5012293;28;87075;-47
2024/01/26 01:00:45;;;;;;;;;;;2.90;89.90;;;;;;5012730;28;86980;-49
2024/01/26 01:03:10;;;;;;;;;;;2.90;89.80;;;;;;5012361;28;86930;-49
2024/01/26 01:05:36;;;;;;;;;;;2.90;89.80;;;;;;5012251;28;87469;-48
2024/01/26 01:08:02;;;;;;;;;;;2.90;89.70;;;;;;5005209;28;86681;-48
2024/01/26 01:10:27;;;;;;;;;;;2.90;89.70;;;;;;5014258;28;87513;-51
2024/01/26 01:12:53;;;;;;;;;;;2.90;89.70;;;;;;5012710;28;86872;-50
2024/01/26 01:15:18;;;;;;;;;;;2.90;89.50;;;;;;5011527;28;87842;-51
2024/01/26 01:17:45;;;;;;;;;;;2.90;89.50;;;;;;5011577;28;87535;-49
2024/01/26 01:20:11;;;;;;;;;;;2.90;90.00;;;;;;5011933;28;86990;-48
2024/01/26 01:22:42;;;;;;;;;;;2.90;89.90;;;;;;5011082;28;87889;-49
2024/01/26 01:25:11;;;;;;;;;;;2.90;89.90;;;;;;5011399;28;87006;-50
2024/01/26 01:27:36;;;;;;;;;;;2.90;90.00;;;;;;5011491;28;88016;-50
2024/01/26 01:30:05;;;;;;;;;;;2.90;90.00;;;;;;5011238;28;87418;-48
2024/01/26 01:32:31;;;;;;;;;;;2.90;89.80;;;;;;5012769;28;86221;-50
2024/01/26 01:34:56;;;;;;;;;;;2.90;89.80;;;;;;5012205;28;87493;-49
2024/01/26 01:37:22;;;;;;;;;;;2.90;89.80;;;;;;5006212;28;87047;-49
2024/01/26 01:39:48;;;;;;;;;;;2.90;89.70;;;;;;5006055;28;88190;-49
2024/01/26 01:42:14;;;;;;;;;;;2.90;89.60;;;;;;5008489;28;87523;-49
2024/01/26 01:44:40;;;;;;;;;;;2.90;89.60;;;;;;5008929;28;87019;-49
2024/01/26 01:47:05;;;;;;;;;;;2.90;89.50;;;;;;5008999;28;86846;-50
2024/01/26 01:49:31;;;;;;;;;;;2.80;89.40;;;;;;5008206;28;87749;-51
2024/01/26 01:51:59;;;;;;;;;;;2.90;89.60;;;;;;5011683;28;87117;-51
2024/01/26 01:54:26;;;;;;;;;;;2.80;89.50;;;;;;5007787;28;87439;-50
2024/01/26 01:56:53;;;;;;;;;;;2.80;89.50;;;;;;5009014;28;86593;-50
2024/01/26 01:59:20;;;;;;;;;;;2.90;89.70;;;;;;5008675;28;87336;-49
2024/01/26 02:01:45;;;;;;;;;;;2.90;89.80;;;;;;5008464;28;87445;-51
2024/01/26 02:04:11;;;;;;;;;;;2.90;89.80;;;;;;5008201;28;88131;-49
2024/01/26 02:06:36;;;;;;;;;;;2.90;89.70;;;;;;5008715;28;87861;-49
2024/01/26 02:09:02;;;;;;;;;;;2.80;89.60;;;;;;5007191;28;86930;-49
2024/01/26 02:11:27;;;;;;;;;;;2.80;89.70;;;;;;5007603;28;87136;-51
2024/01/26 02:13:53;;;;;;;;;;;2.80;89.80;;;;;;5006427;28;88033;-52
2024/01/26 02:16:18;;;;;;;;;;;2.80;89.90;;;;;;5008155;28;87074;-51
2024/01/26 02:18:44;;;;;;;;;;;2.80;89.90;;;;;;5006866;28;87734;-48
2024/01/26 02:21:09;;;;;;;;;;;2.90;90.00;;;;;;5008711;28;86643;-51
2024/01/26 02:23:41;;;;;;;;;;;2.90;90.00;;;;;;5007779;28;87024;-50
2024/01/26 02:26:08;;;;;;;;;;;2.90;90.00;;;;;;5008311;28;87935;-49
2024/01/26 02:28:33;;;;;;;;;;;2.90;90.10;;;;;;5006346;28;87861;-49
2024/01/26 02:30:59;;;;;;;;;;;2.80;90.10;;;;;;5008246;28;87033;-48
2024/01/26 02:33:24;;;;;;;;;;;2.80;90.10;;;;;;5007455;27;87160;-49
2024/01/26 02:35:50;;;;;;;;;;;2.80;90.30;;;;;;5010302;28;87458;-49
2024/01/26 02:38:15;;;;;;;;;;;2.80;90.00;;;;;;5006141;28;87016;-49
2024/01/26 02:40:41;;;;;;;;;;;2.80;90.00;;;;;;5006749;28;88516;-50
2024/01/26 02:43:06;;;;;;;;;;;2.80;90.10;;;;;;5006736;28;86921;-49
2024/01/26 02:45:32;;;;;;;;;;;2.80;90.00;;;;;;5004654;28;86197;-50
2024/01/26 02:47:58;;;;;;;;;;;2.80;90.10;;;;;;5007252;28;88475;-49
2024/01/26 02:50:23;;;;;;;;;;;2.80;90.10;;;;;;5007921;28;87047;-48
2024/01/26 02:52:49;;;;;;;;;;;2.90;90.10;;;;;;5007477;28;87817;-49
2024/01/26 02:55:14;;;;;;;;;;;2.80;90.00;;;;;;5006503;28;87253;-49
2024/01/26 02:57:40;;;;;;;;;;;2.80;90.10;;;;;;5010154;28;87170;-48
2024/01/26 03:00:07;;;;;;;;;;;2.80;90.00;;;;;;5007229;28;88705;-48
2024/01/26 03:02:32;;;;;;;;;;;2.80;90.00;;;;;;5007515;28;87035;-51
2024/01/26 03:04:58;;;;;;;;;;;2.80;90.10;;;;;;5007539;28;86979;-49
2024/01/26 03:07:24;;;;;;;;;;;2.80;90.10;;;;;;5007169;28;88519;-49
2024/01/26 03:09:49;;;;;;;;;;;2.80;90.10;;;;;;5005216;28;86361;-48
2024/01/26 03:12:15;;;;;;;;;;;2.80;90.10;;;;;;5007195;28;87134;-49
2024/01/26 03:14:40;;;;;;;;;;;2.80;90.10;;;;;;4999736;28;90473;-53
2024/01/26 03:17:06;;;;;;;;;;;2.80;90.10;;;;;;5004143;28;87860;-51
2024/01/26 03:19:35;;;;;;;;;;;2.80;90.00;;;;;;5010123;28;87749;-49
2024/01/26 03:22:01;;;;;;;;;;;2.80;90.00;;;;;;4999707;28;86985;-49
2024/01/26 03:24:26;;;;;;;;;;;2.80;90.10;;;;;;5003664;28;87024;-52
2024/01/26 03:26:52;;;;;;;;;;;2.80;90.20;;;;;;5006892;28;87584;-48
2024/01/26 03:29:17;;;;;;;;;;;2.80;90.10;;;;;;5007002;28;86995;-49
2024/01/26 03:31:43;;;;;;;;;;;2.80;90.20;;;;;;5007098;28;87995;-51
2024/01/26 03:34:09;;;;;;;;;;;2.80;90.10;;;;;;5007059;28;87666;-50
2024/01/26 03:36:35;;;;;;;;;;;2.80;90.10;;;;;;5002253;28;87036;-49
2024/01/26 03:39:00;;;;;;;;;;;2.80;90.10;;;;;;5006435;28;87145;-48
2024/01/26 03:41:26;;;;;;;;;;;2.80;90.00;;;;;;5008908;28;87863;-49
2024/01/26 03:43:52;;;;;;;;;;;2.80;90.10;;;;;;5006598;28;88896;-49
2024/01/26 03:46:18;;;;;;;;;;;2.80;90.10;;;;;;5005600;28;88447;-48
2024/01/26 03:48:43;;;;;;;;;;;2.80;90.10;;;;;;5005628;28;87108;-50
2024/01/26 03:51:09;;;;;;;;;;;2.80;90.00;;;;;;5006905;28;86896;-49
2024/01/26 03:53:34;;;;;;;;;;;2.80;90.10;;;;;;5005653;28;87482;-51
2024/01/26 03:56:00;;;;;;;;;;;2.80;90.10;;;;;;5006523;28;87060;-48
2024/01/26 03:58:25;;;;;;;;;;;2.80;90.10;;;;;;5007703;28;86850;-51
2024/01/26 04:00:51;;;;;;;;;;;2.80;90.10;;;;;;5007822;28;87477;-48
2024/01/26 04:03:16;;;;;;;;;;;2.80;90.10;;;;;;5006034;28;87023;-50
2024/01/26 04:05:42;;;;;;;;;;;2.80;90.10;;;;;;5004595;28;89394;-51
2024/01/26 04:08:08;;;;;;;;;;;2.80;90.10;;;;;;5006068;28;87873;-49
2024/01/26 04:10:33;;;;;;;;;;;2.80;90.00;;;;;;5006212;28;87270;-49
2024/01/26 04:12:59;;;;;;;;;;;2.80;90.10;;;;;;5005611;28;87344;-50
2024/01/26 04:15:24;;;;;;;;;;;2.80;90.10;;;;;;5006221;28;87152;-50
2024/01/26 04:17:50;;;;;;;;;;;2.80;90.10;;;;;;5006336;28;87089;-49
2024/01/26 04:20:15;;;;;;;;;;;2.80;90.10;;;;;;5006277;28;87793;-52
2024/01/26 04:22:42;;;;;;;;;;;2.80;90.10;;;;;;5009166;28;86397;-50
2024/01/26 04:25:08;;;;;;;;;;;2.80;90.00;;;;;;5000877;28;86948;-49
2024/01/26 04:27:34;;;;;;;;;;;2.80;90.10;;;;;;5006000;28;86944;-50
2024/01/26 04:29:59;;;;;;;;;;;2.80;90.10;;;;;;5005582;28;87875;-48
2024/01/26 04:32:25;;;;;;;;;;;2.80;90.10;;;;;;5006131;28;87409;-49
2024/01/26 04:34:51;;;;;;;;;;;2.80;90.30;;;;;;5006043;28;87049;-51
2024/01/26 04:37:16;;;;;;;;;;;2.80;90.00;;;;;;5004197;28;87052;-51
2024/01/26 04:39:42;;;;;;;;;;;2.80;90.10;;;;;;5005494;28;87378;-48
2024/01/26 04:42:08;;;;;;;;;;;2.80;90.20;;;;;;5005627;28;87033;-49
2024/01/26 04:44:35;;;;;;;;;;;2.70;90.00;;;;;;5008620;28;87873;-51
2024/01/26 04:47:00;;;;;;;;;;;2.80;90.10;;;;;;5006448;28;86265;-50
2024/01/26 04:49:26;;;;;;;;;;;2.80;90.10;;;;;;5005869;28;86861;-49
2024/01/26 04:51:51;;;;;;;;;;;2.80;90.10;;;;;;5005091;28;87562;-49
2024/01/26 04:54:17;;;;;;;;;;;2.80;90.10;;;;;;5003459;28;87766;-48
2024/01/26 04:56:42;;;;;;;;;;;2.70;90.10;;;;;;5001417;28;87473;-48
2024/01/26 04:59:08;;;;;;;;;;;2.80;90.40;;;;;;5006033;28;87538;-52
2024/01/26 05:01:34;;;;;;;;;;;2.70;90.10;;;;;;5001862;28;87015;-50
2024/01/26 05:03:59;;;;;;;;;;;2.70;90.10;;;;;;5006156;28;87041;-49
2024/01/26 05:06:25;;;;;;;;;;;2.70;90.10;;;;;;5007098;28;87403;-48
2024/01/26 05:08:51;;;;;;;;;;;2.80;90.10;;;;;;5005782;28;86894;-48
2024/01/26 05:11:18;;;;;;;;;;;2.70;90.10;;;;;;5000349;28;86818;-49
2024/01/26 05:13:44;;;;;;;;;;;2.70;90.00;;;;;;5009303;28;87069;-49
2024/01/26 05:16:10;;;;;;;;;;;2.70;90.10;;;;;;5009340;28;86890;-51
2024/01/26 05:18:35;;;;;;;;;;;2.70;90.00;;;;;;5008131;28;88390;-48
2024/01/26 05:21:01;;;;;;;;;;;2.70;90.10;;;;;;5009534;28;87025;-49
2024/01/26 05:23:26;;;;;;;;;;;2.70;89.90;;;;;;5008792;28;86922;-50
2024/01/26 05:25:52;;;;;;;;;;;2.70;89.70;;;;;;5007755;28;87690;-50
2024/01/26 05:28:17;;;;;;;;;;;2.70;89.80;;;;;;5009645;28;87086;-50
2024/01/26 05:30:43;;;;;;;;;;;2.70;89.90;;;;;;5008402;28;87444;-48
2024/01/26 05:33:09;;;;;;;;;;;2.70;89.90;;;;;;5008944;28;86989;-49
2024/01/26 05:35:34;;;;;;;;;;;2.70;89.50;;;;;;5009119;28;87843;-48
2024/01/26 05:38:00;;;;;;;;;;;2.70;89.60;;;;;;5006140;28;87568;-50
2024/01/26 05:40:25;;;;;;;;;;;2.70;89.40;;;;;;5008659;28;87072;-48
2024/01/26 05:42:51;;;;;;;;;;;2.70;89.30;;;;;;5008101;28;87793;-48
2024/01/26 05:45:16;;;;;;;;;;;2.70;89.20;;;;;;5008169;28;87319;-49
2024/01/26 05:47:42;;;;;;;;;;;2.70;89.20;;;;;;5008325;28;86990;-48
2024/01/26 05:50:08;;;;;;;;;;;2.70;89.20;;;;;;5011098;28;87874;-49
2024/01/26 05:52:34;;;;;;;;;;;2.70;89.10;;;;;;5007918;28;86755;-51
2024/01/26 05:54:59;;;;;;;;;;;2.70;89.00;;;;;;5008992;28;87011;-48
2024/01/26 05:57:25;;;;;;;;;;;2.70;89.00;;;;;;5005102;28;87335;-50
2024/01/26 05:59:50;;;;;;;;;;;2.70;88.90;;;;;;5009260;28;86419;-48
2024/01/26 06:02:16;;;;;;;;;;;2.70;88.90;;;;;;5008566;28;86977;-49
2024/01/26 06:04:42;;;;;;;;;;;2.70;88.90;;;;;;5008314;28;87620;-49
2024/01/26 06:07:07;;;;;;;;;;;2.70;88.90;;;;;;5006872;28;87971;-51
2024/01/26 06:09:33;;;;;;;;;;;2.70;89.00;;;;;;5009644;28;87724;-50
2024/01/26 06:12:00;;;;;;;;;;;2.70;89.00;;;;;;5007503;28;87021;-48
2024/01/26 06:14:25;;;;;;;;;;;2.70;88.90;;;;;;5008731;28;86975;-49
2024/01/26 06:16:51;;;;;;;;;;;2.70;88.90;;;;;;5008293;28;86984;-50
2024/01/26 06:19:16;;;;;;;;;;;2.70;88.80;;;;;;5008307;28;87964;-50
2024/01/26 06:21:42;;;;;;;;;;;2.70;88.80;;;;;;5008018;28;88064;-49
2024/01/26 06:24:07;;;;;;;;;;;2.70;88.90;;;;;;5007870;28;86693;-48
2024/01/26 06:26:33;;;;;;;;;;;2.70;88.80;;;;;;5007354;28;87216;-49
2024/01/26 06:28:59;;;;;;;;;;;2.70;88.80;;;;;;5008150;28;86884;-49
2024/01/26 06:31:27;;;;;;;;;;;2.70;88.70;;;;;;5008977;28;88540;-48
2024/01/26 06:33:53;;;;;;;;;;;2.70;88.70;;;;;;5003220;28;87804;-48
2024/01/26 06:36:18;;;;;;;;;;;2.70;88.70;;;;;;5007326;28;86927;-48
2024/01/26 06:38:44;;;;;;;;;;;2.70;88.50;;;;;;5008360;28;87022;-49
2024/01/26 06:41:09;;;;;;;;;;;2.70;88.50;;;;;;5002459;28;86927;-49
2024/01/26 06:43:35;;;;;;;;;;;2.70;88.40;;;;;;4998714;28;88684;-49
2024/01/26 06:46:00;;;;;;;;;;;2.70;88.30;;;;;;5006815;28;86973;-48
2024/01/26 06:48:26;;;;;;;;;;;2.70;88.20;;;;;;5008074;28;87110;-49
2024/01/26 06:50:52;;;;;;;;;;;2.70;88.20;;;;;;5007025;28;87953;-50
2024/01/26 06:53:18;;;;;;;;;;;2.70;88.20;;;;;;5010828;28;87001;-49
2024/01/26 06:55:43;;;;;;;;;;;2.70;88.10;;;;;;5006911;28;88289;-53
2024/01/26 06:58:09;;;;;;;;;;;2.70;88.10;;;;;;5004606;28;87523;-49
2024/01/26 07:00:35;;;;;;;;;;;2.70;88.20;;;;;;5007971;28;86901;-49
2024/01/26 07:03:00;;;;;;;;;;;2.70;88.20;;;;;;5007443;28;87161;-50
2024/01/26 07:05:26;;;;;;;;;;;2.70;88.20;;;;;;5008036;28;86878;-50
2024/01/26 07:07:51;;;;;;;;;;;2.70;88.20;;;;;;5007950;28;87560;-48
2024/01/26 07:10:17;;;;;;;;;;;2.70;88.30;;;;;;5006680;28;88488;-49
2024/01/26 07:12:43;;;;;;;;;;;2.70;88.10;;;;;;5006267;28;86237;-49
2024/01/26 07:15:09;;;;;;;;;;;2.70;88.30;;;;;;5010249;28;86872;-50
2024/01/26 07:17:35;;;;;;;;;;;2.70;88.30;;;;;;5007249;28;87216;-49
2024/01/26 07:20:02;;;;;;;;;;;2.70;88.30;;;;;;5006927;28;87843;-48
2024/01/26 07:22:28;;;;;;;;;;;2.70;88.40;;;;;;5007190;28;86921;-49
2024/01/26 07:24:54;;;;;;;;;;;2.70;88.30;;;;;;5007480;28;87130;-48
2024/01/26 07:27:19;;;;;;;;;;;2.70;88.30;;;;;;5006723;28;87880;-48
2024/01/26 07:29:47;;;;;;;;;;;2.70;88.20;;;;;;5006985;28;87554;-50
2024/01/26 07:32:12;;;;;;;;;;;2.70;88.20;;;;;;5006613;28;86984;-49
2024/01/26 07:34:38;;;;;;;;;;;2.70;88.30;;;;;;5003642;28;86980;-48
2024/01/26 07:37:04;;;;;;;;;;;2.70;88.20;;;;;;5006454;28;86658;-49
2024/01/26 07:39:29;;;;;;;;;;;2.70;88.30;;;;;;5007075;28;86910;-49
2024/01/26 07:41:55;;;;;;;;;;;2.70;88.30;;;;;;5005794;28;88467;-48
2024/01/26 07:44:20;;;;;;;;;;;2.70;88.20;;;;;;5004873;28;88617;-51
2024/01/26 07:46:46;;;;;;;;;;;2.70;88.20;;;;;;5007197;28;86886;-50
2024/01/26 07:49:11;;;;;;;;;;;2.70;88.20;;;;;;5005774;28;87314;-49
2024/01/26 07:51:37;;;;;;;;;;;2.70;88.10;;;;;;5006881;28;87083;-48
2024/01/26 07:54:03;;;;;;;;;;;2.70;88.00;;;;;;5007139;28;87191;-48
2024/01/26 07:56:28;;;;;;;;;;;2.70;88.00;;;;;;5005351;28;88485;-47
2024/01/26 07:58:54;;;;;;;;;;;2.70;87.80;;;;;;5008688;28;86968;-49
2024/01/26 08:01:19;;;;;;;;;;;2.70;87.70;;;;;;5006565;28;86140;-50
2024/01/26 08:03:45;;;;;;;;;;;2.70;88.00;;;;;;5006181;28;86806;-50
2024/01/26 08:06:11;;;;;;;;;;;2.70;87.80;;;;;;5006234;28;86857;-53
2024/01/26 08:08:36;;;;;;;;;;;2.70;87.70;;;;;;5005456;28;88259;-49
2024/01/26 08:11:02;;;;;;;;;;;2.70;87.80;;;;;;5005242;28;86910;-51
2024/01/26 08:13:27;;;;;;;;;;;2.70;87.80;;;;;;5002505;28;86974;-48
2024/01/26 08:15:54;;;;;;;;;;;2.70;87.70;;;;;;5005727;28;88367;-48
2024/01/26 08:18:20;;;;;;;;;;;2.70;87.80;;;;;;5009397;28;87115;-48
2024/01/26 08:20:45;;;;;;;;;;;2.70;87.80;;;;;;5006358;28;87290;-50
2024/01/26 08:23:11;;;;;;;;;;;2.70;87.70;;;;;;5005729;28;87044;-50
2024/01/26 08:25:37;;;;;;;;;;;2.70;87.90;;;;;;5006354;28;87958;-48
2024/01/26 08:28:02;;;;;;;;;;;2.70;87.90;;;;;;5004867;28;87431;-50
2024/01/26 08:30:28;;;;;;;;;;;2.70;88.00;;;;;;5006078;28;86986;-50
2024/01/26 08:32:54;;;;;;;;;;;2.70;88.00;;;;;;5005044;28;88310;-51
2024/01/26 08:35:19;;;;;;;;;;;2.70;87.90;;;;;;5006173;28;87559;-50
2024/01/26 08:37:45;;;;;;;;;;;2.70;87.90;;;;;;5005910;28;87025;-49
2024/01/26 08:40:10;;;;;;;;;;;2.70;88.50;;;;;;5009027;28;86959;-49
2024/01/26 08:42:36;;;;;;;;;;;2.70;87.90;;;;;;5004296;28;87005;-50
2024/01/26 08:45:03;;;;;;;;;;;2.70;88.00;;;;;;5005999;28;87272;-48
2024/01/26 08:47:29;;;;;;;;;;;2.70;87.90;;;;;;5009345;28;88525;-49
2024/01/26 08:49:55;;;;;;;;;;;2.70;87.90;;;;;;5010171;28;86296;-49
2024/01/26 08:52:20;;;;;;;;;;;2.70;87.90;;;;;;5009752;28;86962;-49
2024/01/26 08:54:46;;;;;;;;;;;2.70;88.40;;;;;;5009310;28;87358;-48
2024/01/26 08:57:11;;;;;;;;;;;2.70;87.80;;;;;;5007652;28;88330;-51
2024/01/26 08:59:38;;;;;;;;;;;2.70;87.70;;;;;;5008434;28;87716;-48
2024/01/26 09:02:04;;;;;;;;;;;2.70;87.70;;;;;;5001281;28;90024;-48
2024/01/26 09:04:29;;;;;;;;;;;2.70;87.70;;;;;;5009223;28;86990;-51
2024/01/26 09:06:55;;;;;;;;;;;2.70;87.70;;;;;;5005141;28;87008;-49
2024/01/26 09:09:21;;;;;;;;;;;2.70;87.80;;;;;;5008703;28;87016;-49
2024/01/26 09:11:46;;;;;;;;;;;2.80;87.90;;;;;;5009174;28;87909;-48
2024/01/26 09:14:13;;;;;;;;;;;2.80;87.80;;;;;;5004912;28;87647;-49
2024/01/26 09:16:38;;;;;;;;;;;2.70;87.70;;;;;;5009349;28;86990;-50
2024/01/26 09:19:04;;;;;;;;;;;2.70;87.70;;;;;;5008990;28;86982;-51
2024/01/26 09:21:29;;;;;;;;;;;2.80;87.60;;;;;;5007631;28;88407;-50
2024/01/26 09:23:55;;;;;;;;;;;2.80;87.50;;;;;;5012310;28;86937;-49
2024/01/26 09:26:21;;;;;;;;;;;2.80;87.50;;;;;;5008278;28;87355;-49
2024/01/26 09:28:47;;;;;;;;;;;2.80;87.70;;;;;;5008844;28;87058;-48
2024/01/26 09:31:13;;;;;;;;;;;2.80;87.50;;;;;;5008776;28;87025;-49
2024/01/26 09:33:38;;;;;;;;;;;2.80;87.70;;;;;;5008571;28;88516;-49
2024/01/26 09:36:04;;;;;;;;;;;2.80;87.30;;;;;;5008989;28;87078;-50
2024/01/26 09:38:30;;;;;;;;;;;2.80;87.70;;;;;;5008757;28;87995;-51
2024/01/26 09:40:56;;;;;;;;;;;2.80;87.00;;;;;;5008135;28;87531;-50
2024/01/26 09:43:21;;;;;;;;;;;2.90;87.70;;;;;;5008941;28;86909;-48
2024/01/26 09:45:49;;;;;;;;;;;2.90;86.90;;;;;;5008478;28;89647;-50
2024/01/26 09:48:18;;;;;;;;;;;2.90;87.10;;;;;;5002260;28;86992;-49
2024/01/26 09:50:43;;;;;;;;;;;2.80;87.00;;;;;;5008468;28;86882;-48
2024/01/26 09:53:11;;;;;;;;;;;2.80;87.50;;;;;;5008396;28;87403;-50
2024/01/26 09:55:39;;;;;;;;;;;2.80;87.40;;;;;;5007655;28;87362;-48
2024/01/26 09:58:05;;;;;;;;;;;2.90;87.40;;;;;;5007211;28;88567;-49
2024/01/26 10:00:31;;;;;;;;;;;2.90;87.50;;;;;;5007717;28;86968;-48
2024/01/26 10:02:56;;;;;;;;;;;2.90;87.60;;;;;;5009265;28;86310;-51
2024/01/26 10:05:22;;;;;;;;;;;2.90;87.70;;;;;;5011085;28;87082;-48
2024/01/26 10:07:48;;;;;;;;;;;2.80;87.80;;;;;;5008304;28;86884;-49
2024/01/26 10:10:13;;;;;;;;;;;2.80;88.00;;;;;;5007279;28;88087;-50
2024/01/26 10:12:40;;;;;;;;;;;2.90;87.60;;;;;;5005195;28;88522;-50
2024/01/26 10:15:10;;;;;;;;;;;2.90;87.90;;;;;;5003407;28;87098;-49
2024/01/26 10:17:38;;;;;;;;;;;2.80;88.10;;;;;;5007388;28;86906;-49
2024/01/26 10:20:15;;;;;;;;;;;2.80;88.00;;;;;;5004416;28;87546;-49
2024/01/26 10:22:41;;;;;;;;;;;2.80;87.80;;;;;;5008269;28;86946;-48
2024/01/26 10:25:06;;;;;;;;;;;2.80;87.60;;;;;;5007831;28;87839;-51
2024/01/26 10:27:32;;;;;;;;;;;2.90;88.00;;;;;;5007851;28;87067;-49
2024/01/26 10:29:58;;;;;;;;;;;2.80;87.60;;;;;;5006113;28;86922;-50
2024/01/26 10:32:28;;;;;;;;;;;2.90;87.80;;;;;;5007291;28;87508;-51
2024/01/26 10:34:57;;;;;;;;;;;2.90;87.80;;;;;;5006376;28;87935;-50
2024/01/26 10:37:24;;;;;;;;;;;2.90;87.90;;;;;;5006935;28;88728;-49
2024/01/26 10:39:52;;;;;;;;;;;2.90;87.50;;;;;;5001148;28;87461;-49
2024/01/26 10:42:19;;;;;;;;;;;2.90;87.30;;;;;;5005604;28;87607;-48
2024/01/26 10:44:44;;;;;;;;;;;2.90;87.70;;;;;;5008053;28;87093;-48
2024/01/26 10:47:11;;;;;;;;;;;2.90;88.00;;;;;;5006627;28;88417;-48
2024/01/26 10:49:37;;;;;;;;;;;2.90;88.10;;;;;;5010062;28;86871;-48
2024/01/26 10:52:03;;;;;;;;;;;2.80;88.40;;;;;;5006983;28;87650;-50
2024/01/26 10:54:29;;;;;;;;;;;2.90;88.40;;;;;;5007514;28;87035;-49
2024/01/26 10:56:55;;;;;;;;;;;2.80;88.50;;;;;;5008045;28;86847;-50
2024/01/26 10:59:20;;;;;;;;;;;2.90;88.70;;;;;;5006159;28;88294;-51
2024/01/26 11:01:46;;;;;;;;;;;2.90;88.50;;;;;;5007414;28;87609;-49
2024/01/26 11:04:12;;;;;;;;;;;2.90;88.30;;;;;;5007287;28;86843;-49
2024/01/26 11:06:39;;;;;;;;;;;2.90;88.30;;;;;;5003860;28;87425;-50
2024/01/26 11:09:08;;;;;;;;;;;2.90;88.40;;;;;;5007401;28;86930;-50
2024/01/26 11:11:38;;;;;;;;;;;2.90;88.40;;;;;;5010056;28;88014;-48
2024/01/26 11:14:04;;;;;;;;;;;2.90;88.10;;;;;;5007420;28;87090;-50
2024/01/26 11:16:40;;;;;;;;;;;3.00;88.00;;;;;;5005994;28;86832;-48
2024/01/26 11:19:06;;;;;;;;;;;3.00;87.90;;;;;;5004030;28;87402;-50
2024/01/26 11:21:42;;;;;;;;;;;3.00;88.00;;;;;;5007429;28;87153;-49
2024/01/26 11:24:14;;;;;;;;;;;3.00;88.20;;;;;;5002743;28;87858;-49
2024/01/26 11:26:55;;;;;;;;;;;3.00;87.80;;;;;;5006976;28;88477;-49
2024/01/26 11:29:20;;;;;;;;;;;3.00;87.90;;;;;;5006378;28;87059;-48
2024/01/26 11:31:46;;;;;;;;;;;3.00;88.10;;;;;;5004847;28;86989;-48
2024/01/26 11:34:18;;;;;;;;;;;3.00;88.10;;;;;;5009069;28;87720;-49
2024/01/26 11:36:44;;;;;;;;;;;3.00;88.10;;;;;;5004669;28;87260;-50
2024/01/26 11:39:13;;;;;;;;;;;3.10;87.80;;;;;;5006892;28;88542;-49
2024/01/26 11:41:43;;;;;;;;;;;3.10;87.70;;;;;;5007713;28;86165;-50
2024/01/26 11:44:15;;;;;;;;;;;3.10;87.70;;;;;;5004026;28;86930;-49
2024/01/26 11:46:42;;;;;;;;;;;3.10;87.80;;;;;;5006396;28;87436;-49
2024/01/26 11:49:07;;;;;;;;;;;3.10;87.40;;;;;;5002369;28;87938;-50
2024/01/26 11:51:33;;;;;;;;;;;3.10;87.30;;;;;;5006984;28;87726;-50
2024/01/26 11:53:59;;;;;;;;;;;3.10;87.70;;;;;;5006623;28;87415;-51
2024/01/26 11:56:25;;;;;;;;;;;3.10;87.90;;;;;;5010029;28;87084;-50
2024/01/26 11:58:50;;;;;;;;;;;3.10;87.70;;;;;;5006482;28;88612;-49
2024/01/26 12:01:16;;;;;;;;;;;3.10;87.40;;;;;;5003592;28;86957;-50
2024/01/26 12:03:42;;;;;;;;;;;3.20;87.40;;;;;;5006971;28;86877;-48
2024/01/26 12:06:07;;;;;;;;;;;3.10;87.50;;;;;;5007071;28;86790;-49
2024/01/26 12:08:33;;;;;;;;;;;3.10;87.30;;;;;;5006287;28;86951;-48
2024/01/26 12:10:59;;;;;;;;;;;3.20;87.20;;;;;;5006840;28;87321;-48
2024/01/26 12:13:25;;;;;;;;;;;3.20;87.20;;;;;;5005527;28;88611;-48
2024/01/26 12:15:50;;;;;;;;;;;3.20;87.20;;;;;;5009485;28;87512;-48
2024/01/26 12:18:16;;;;;;;;;;;3.20;87.20;;;;;;5004491;28;87462;-50
2024/01/26 12:20:42;;;;;;;;;;;3.10;87.50;;;;;;5006268;28;86986;-50
2024/01/26 12:23:17;;;;;;;;;;;3.20;87.40;;;;;;5000609;28;87471;-50
2024/01/26 12:25:43;;;;;;;;;;;3.20;87.40;;;;;;5001055;28;87481;-51
2024/01/26 12:28:08;;;;;;;;;;;3.20;87.10;;;;;;5002895;28;87457;-49
2024/01/26 12:30:34;;;;;;;;;;;3.20;86.90;;;;;;5006449;28;86623;-50
2024/01/26 12:33:06;;;;;;;;;;;3.20;87.00;;;;;;5002199;28;87319;-49
2024/01/26 12:35:34;;;;;;;;;;;3.20;87.20;;;;;;5006316;28;87052;-49
2024/01/26 12:37:59;;;;;;;;;;;3.20;86.90;;;;;;5007211;28;87871;-48
2024/01/26 12:40:25;;;;;;;;;;;3.20;86.80;;;;;;5006450;28;86953;-48
2024/01/26 12:42:50;;;;;;;;;;;3.20;87.00;;;;;;5006176;28;87979;-50
2024/01/26 12:45:16;;;;;;;;;;;3.20;86.80;;;;;;5005853;28;88403;-53
2024/01/26 12:47:41;;;;;;;;;;;3.20;87.10;;;;;;5005135;28;87131;-50
2024/01/26 12:50:07;;;;;;;;;;;3.20;86.90;;;;;;5006141;28;86835;-48
2024/01/26 12:52:33;;;;;;;;;;;3.20;86.80;;;;;;5004942;28;88276;-48
2024/01/26 12:54:59;;;;;;;;;;;3.20;87.30;;;;;;5005836;28;86842;-50
2024/01/26 12:57:24;;;;;;;;;;;3.20;87.00;;;;;;5005950;28;86848;-48
2024/01/26 12:59:50;;;;;;;;;;;3.20;87.40;;;;;;5006630;28;88338;-49
2024/01/26 13:02:16;;;;;;;;;;;3.20;87.40;;;;;;5003650;28;88074;-49
2024/01/26 13:04:42;;;;;;;;;;;3.20;87.30;;;;;;5004764;28;87447;-48
2024/01/26 13:07:08;;;;;;;;;;;3.20;87.40;;;;;;5005832;28;87003;-48
2024/01/26 13:09:34;;;;;;;;;;;3.20;87.40;;;;;;5004649;28;90009;-47
2024/01/26 13:12:02;;;;;;;;;;;3.20;87.50;;;;;;5005568;28;88274;-47
2024/01/26 13:14:28;;;;;;;;;;;3.20;87.60;;;;;;5006196;28;87281;-52
2024/01/26 13:16:54;;;;;;;;;;;3.20;87.60;;;;;;5005161;28;87435;-49
2024/01/26 13:19:19;;;;;;;;;;;3.30;87.70;;;;;;5004692;28;87776;-48
2024/01/26 13:21:48;;;;;;;;;;;3.30;87.60;;;;;;5009025;28;86890;-50
2024/01/26 13:24:14;;;;;;;;;;;3.20;87.20;;;;;;5005431;28;88715;-49
2024/01/26 13:26:42;;;;;;;;;;;3.30;87.70;;;;;;5004958;28;87912;-51
2024/01/26 13:29:08;;;;;;;;;;;3.30;87.40;;;;;;5000984;28;90861;-48
2024/01/26 13:31:34;;;;;;;;;;;3.30;87.50;;;;;;5005493;28;87484;-48
2024/01/26 13:34:00;;;;;;;;;;;3.30;87.80;;;;;;5007212;28;87118;-51
2024/01/26 13:36:26;;;;;;;;;;;3.30;87.60;;;;;;5006785;28;87028;-47
2024/01/26 13:38:51;;;;;;;;;;;3.30;87.20;;;;;;5004921;28;88712;-47
2024/01/26 13:41:17;;;;;;;;;;;3.30;87.50;;;;;;5008914;28;86989;-48
2024/01/26 13:43:43;;;;;;;;;;;3.30;87.80;;;;;;5011602;28;87913;-48
2024/01/26 13:46:09;;;;;;;;;;;3.30;87.30;;;;;;5009140;28;86987;-48
2024/01/26 13:48:35;;;;;;;;;;;3.30;87.50;;;;;;5008093;28;86904;-47
2024/01/26 13:51:00;;;;;;;;;;;3.30;87.50;;;;;;5007596;28;88735;-47
2024/01/26 13:53:26;;;;;;;;;;;3.30;87.00;;;;;;5008677;28;86947;-49
2024/01/26 13:55:52;;;;;;;;;;;3.30;87.20;;;;;;5007077;28;87917;-49
2024/01/26 13:58:18;;;;;;;;;;;3.30;87.10;;;;;;5004121;28;87430;-47
2024/01/26 14:00:46;;;;;;;;;;;3.30;87.20;;;;;;5008536;28;87288;-50
2024/01/26 14:03:12;;;;;;;;;;;3.30;87.60;;;;;;5007985;28;87017;-51
2024/01/26 14:05:37;;;;;;;;;;;3.30;87.60;;;;;;5011292;28;87291;-48
2024/01/26 14:08:06;;;;;;;;;;;3.30;87.70;;;;;;5009246;28;86729;-47
2024/01/26 14:10:33;;;;;;;;;;;3.30;87.40;;;;;;5008019;28;87475;-48
2024/01/26 14:12:58;;;;;;;;;;;3.40;87.30;;;;;;5008307;28;87035;-48
2024/01/26 14:15:24;;;;;;;;;;;3.40;87.30;;;;;;5008145;28;87898;-47
2024/01/26 14:17:50;;;;;;;;;;;3.40;87.20;;;;;;5008112;28;87501;-48
2024/01/26 14:20:19;;;;;;;;;;;3.40;87.50;;;;;;5007569;28;87159;-49
2024/01/26 14:22:45;;;;;;;;;;;3.40;87.70;;;;;;5008287;28;87799;-49